createdAt,value
2018-11-26T00:03:49.150Z,100644.00
2018-11-26T00:06:36.056Z,100648.00
2018-11-26T00:15:12.292Z,100656.00
2018-11-26T00:17:52.247Z,100654.00
2018-11-26T00:20:24.432Z,100652.00
2018-11-26T00:23:23.760Z,100657.00
2018-11-26T00:26:16.820Z,100656.00
2018-11-26T00:28:49.869Z,100660.00
2018-11-26T00:34:52.859Z,100666.00
2018-11-26T00:37:54.300Z,100669.00
2018-11-26T00:40:24.729Z,100663.00
2018-11-26T00:42:55.364Z,100646.00
2018-11-26T00:45:24.862Z,100649.00
2018-11-26T00:48:00.903Z,100647.00
2018-11-26T00:50:31.938Z,100648.00
2018-11-26T00:53:02.147Z,100640.00
2018-11-26T00:55:31.964Z,100638.00
2018-11-26T00:58:02.973Z,100592.00
2018-11-26T01:00:32.230Z,100638.00
2018-11-26T01:03:01.289Z,100640.00
2018-11-26T01:05:35.724Z,100637.00
2018-11-26T01:08:05.010Z,100632.00
2018-11-26T01:10:58.786Z,100639.00
2018-11-26T01:13:28.039Z,100636.00
2018-11-26T01:15:57.183Z,100630.00
2018-11-26T01:18:26.376Z,100633.00
2018-11-26T01:20:55.467Z,100638.00
2018-11-26T01:23:25.434Z,100630.00
2018-11-26T01:44:05.661Z,100636.00
2018-11-26T01:46:57.424Z,100641.00
2018-11-26T01:50:11.198Z,100638.00
2018-11-26T01:52:44.359Z,100680.00
2018-11-26T01:58:13.702Z,100632.00
2018-11-26T02:00:42.788Z,100629.00
2018-11-26T02:03:34.713Z,100631.00
2018-11-26T02:06:31.832Z,100617.00
2018-11-26T02:09:05.505Z,100623.00
2018-11-26T02:11:35.209Z,100623.00
2018-11-26T02:14:25.449Z,100615.00
2018-11-26T02:17:05.705Z,100612.00
2018-11-26T02:20:03.245Z,100617.00
2018-11-26T02:23:01.920Z,100615.00
2018-11-26T02:26:06.535Z,100625.00
2018-11-26T02:28:35.923Z,100615.00
2018-11-26T02:31:05.231Z,100612.00
2018-11-26T02:33:34.281Z,100615.00
2018-11-26T02:36:03.990Z,100617.00
2018-11-26T02:38:33.082Z,100618.00
2018-11-26T02:41:02.122Z,100630.00
2018-11-26T02:43:31.175Z,100633.00
2018-11-26T02:46:02.063Z,100633.00
2018-11-26T02:48:31.975Z,100625.00
2018-11-26T02:53:47.481Z,100626.00
2018-11-26T02:56:16.860Z,100623.00
2018-11-26T02:58:45.958Z,100613.00
2018-11-26T03:01:15.018Z,100622.00
2018-11-26T03:03:44.115Z,100631.00
2018-11-26T03:06:13.452Z,100629.00
2018-11-26T03:08:42.532Z,100627.00
2018-11-26T03:11:11.821Z,100631.00
2018-11-26T03:13:42.417Z,100637.00
2018-11-26T03:16:12.018Z,100635.00
2018-11-26T03:18:41.767Z,100636.00
2018-11-26T03:21:11.154Z,100636.00
2018-11-26T03:23:40.235Z,100641.00
2018-11-26T03:26:09.323Z,100635.00
2018-11-26T03:28:38.359Z,100632.00
2018-11-26T03:31:09.305Z,100626.00
2018-11-26T03:33:39.398Z,100624.00
2018-11-26T03:36:08.528Z,100618.00
2018-11-26T03:38:55.003Z,100623.00
2018-11-26T03:41:24.483Z,100635.00
2018-11-26T03:43:53.518Z,100628.00
2018-11-26T03:46:22.648Z,100637.00
2018-11-26T03:48:51.685Z,100638.00
2018-11-26T03:51:20.740Z,100641.00
2018-11-26T03:53:49.802Z,100642.00
2018-11-26T03:56:18.914Z,100654.00
2018-11-26T03:58:48.184Z,100654.00
2018-11-26T04:01:17.244Z,100648.00
2018-11-26T04:03:46.345Z,100648.00
2018-11-26T04:06:15.416Z,100651.00
2018-11-26T04:08:45.014Z,100645.00
2018-11-26T04:11:14.188Z,100655.00
2018-11-26T04:13:43.338Z,100651.00
2018-11-26T04:16:12.414Z,100651.00
2018-11-26T04:18:41.510Z,100659.00
2018-11-26T04:21:10.591Z,100651.00
2018-11-26T04:23:39.650Z,100645.00
2018-11-26T04:26:08.713Z,100648.00
2018-11-26T04:28:37.849Z,100644.00
2018-11-26T04:31:06.916Z,100655.00
2018-11-26T04:33:36.178Z,100655.00
2018-11-26T04:36:05.240Z,100652.00
2018-11-26T04:38:34.368Z,100658.00
2018-11-26T04:41:04.175Z,100654.00
2018-11-26T04:43:33.370Z,100655.00
2018-11-26T04:46:02.566Z,100657.00
2018-11-26T04:48:32.286Z,100655.00
2018-11-26T04:51:01.386Z,100652.00
2018-11-26T04:53:37.027Z,100656.00
2018-11-26T04:56:06.176Z,100649.00
2018-11-26T04:58:35.270Z,100653.00
2018-11-26T05:01:04.705Z,100654.00
2018-11-26T05:03:33.900Z,100655.00
2018-11-26T05:06:03.065Z,100650.00
2018-11-26T05:08:33.102Z,100650.00
2018-11-26T05:11:02.360Z,100652.00
2018-11-26T05:13:31.539Z,100648.00
2018-11-26T05:16:01.247Z,100651.00
2018-11-26T05:18:31.719Z,100648.00
2018-11-26T05:21:02.169Z,100655.00
2018-11-26T05:23:31.853Z,100655.00
2018-11-26T05:26:02.885Z,100656.00
2018-11-26T05:28:32.265Z,100660.00
2018-11-26T05:31:08.209Z,100661.00
2018-11-26T05:33:37.111Z,100656.00
2018-11-26T05:36:06.312Z,100664.00
2018-11-26T05:38:35.516Z,100664.00
2018-11-26T05:41:04.602Z,100661.00
2018-11-26T05:43:34.656Z,100667.00
2018-11-26T05:46:03.719Z,100668.00
2018-11-26T05:48:32.800Z,100676.00
2018-11-26T05:51:01.857Z,100672.00
2018-11-26T05:53:31.728Z,100670.00
2018-11-26T05:56:01.767Z,100667.00
2018-11-26T05:58:33.159Z,100670.00
2018-11-26T06:01:06.391Z,100676.00
2018-11-26T06:03:35.697Z,100675.00
2018-11-26T06:06:05.002Z,100682.00
2018-11-26T06:08:34.031Z,100683.00
2018-11-26T06:11:03.101Z,100686.00
2018-11-26T06:13:32.148Z,100688.00
2018-11-26T06:16:01.179Z,100693.00
2018-11-26T06:18:30.193Z,100692.00
2018-11-26T06:20:59.254Z,100684.00
2018-11-26T06:23:28.398Z,100689.00
2018-11-26T06:25:57.491Z,100681.00
2018-11-26T06:28:26.632Z,100688.00
2018-11-26T06:30:56.927Z,100694.00
2018-11-26T06:33:26.229Z,100691.00
2018-11-26T06:35:55.273Z,100694.00
2018-11-26T06:38:24.331Z,100692.00
2018-11-26T06:40:53.350Z,100695.00
2018-11-26T06:43:22.589Z,100703.00
2018-11-26T06:45:51.703Z,100696.00
2018-11-26T06:48:20.831Z,100689.00
2018-11-26T06:50:50.009Z,100694.00
2018-11-26T06:53:19.173Z,100704.00
2018-11-26T06:55:48.364Z,100706.00
2018-11-26T06:58:17.517Z,100700.00
2018-11-26T07:00:46.647Z,100701.00
2018-11-26T07:03:15.834Z,100705.00
2018-11-26T07:05:44.890Z,100700.00
2018-11-26T07:08:13.962Z,100705.00
2018-11-26T07:10:44.330Z,100711.00
2018-11-26T07:13:15.656Z,100705.00
2018-11-26T07:15:44.866Z,100706.00
2018-11-26T07:18:14.711Z,100700.00
2018-11-26T07:20:43.795Z,100702.00
2018-11-26T07:23:13.046Z,100693.00
2018-11-26T07:25:42.497Z,100710.00
2018-11-26T07:28:11.813Z,100702.00
2018-11-26T07:30:41.131Z,100707.00
2018-11-26T07:33:12.261Z,100704.00
2018-11-26T07:35:42.980Z,100694.00
2018-11-26T07:38:12.739Z,100702.00
2018-11-26T07:40:42.532Z,100706.00
2018-11-26T07:43:13.601Z,100702.00
2018-11-26T07:45:42.711Z,100693.00
2018-11-26T07:48:14.251Z,100709.00
2018-11-26T07:50:43.727Z,100701.00
2018-11-26T07:53:13.024Z,100710.00
2018-11-26T07:55:42.202Z,100711.00
2018-11-26T07:58:11.999Z,100708.00
2018-11-26T08:00:41.875Z,100717.00
2018-11-26T08:03:11.638Z,100719.00
2018-11-26T08:05:41.609Z,100715.00
2018-11-26T08:08:10.799Z,100722.00
2018-11-26T08:10:40.060Z,100716.00
2018-11-26T08:13:09.143Z,100726.00
2018-11-26T08:15:38.457Z,100723.00
2018-11-26T08:18:07.847Z,100722.00
2018-11-26T08:20:38.105Z,100728.00
2018-11-26T08:23:07.521Z,100726.00
2018-11-26T08:25:37.111Z,100732.00
2018-11-26T08:28:06.723Z,100737.00
2018-11-26T08:30:36.769Z,100730.00
2018-11-26T08:33:06.664Z,100734.00
2018-11-26T08:35:39.020Z,100725.00
2018-11-26T08:38:33.522Z,100715.00
2018-11-26T08:41:13.570Z,100737.00
2018-11-26T08:43:45.062Z,100738.00
2018-11-26T08:46:19.167Z,100742.00
2018-11-26T08:48:53.632Z,100736.00
2018-11-26T08:51:27.339Z,100735.00
2018-11-26T08:53:56.958Z,100734.00
2018-11-26T08:56:26.721Z,100742.00
2018-11-26T08:58:56.889Z,100744.00
2018-11-26T09:01:31.178Z,100730.00
2018-11-26T09:04:04.525Z,100731.00
2018-11-26T09:06:33.919Z,100687.00
2018-11-26T09:09:03.920Z,100738.00
2018-11-26T09:15:10.131Z,100725.00
2018-11-26T09:18:27.348Z,100734.00
2018-11-26T09:20:56.982Z,100751.00
2018-11-26T09:23:34.625Z,100737.00
2018-11-26T09:26:09.677Z,100744.00
2018-11-26T09:28:38.828Z,100744.00
2018-11-26T10:27:50.224Z,100733.00
2018-11-26T10:30:24.682Z,100732.00
2018-11-26T10:35:56.801Z,100727.00
2018-11-26T10:38:33.638Z,100728.00
2018-11-26T10:41:03.520Z,100726.00
2018-11-26T10:43:33.599Z,100722.00
2018-11-26T10:46:02.776Z,100726.00
2018-11-26T10:48:53.607Z,100715.00
2018-11-26T10:51:23.024Z,100714.00
2018-11-26T10:53:53.544Z,100719.00
2018-11-26T10:56:23.024Z,100719.00
2018-11-26T10:58:53.292Z,100713.00
2018-11-26T11:01:28.366Z,100719.00
2018-11-26T11:03:59.167Z,100720.00
2018-11-26T11:06:28.357Z,100717.00
2018-11-26T11:08:57.594Z,100714.00
2018-11-26T11:11:27.708Z,100722.00
2018-11-26T11:13:58.375Z,100726.00
2018-11-26T11:16:27.544Z,100726.00
2018-11-26T11:18:56.713Z,100724.00
2018-11-26T11:21:27.005Z,100720.00
2018-11-26T11:23:56.344Z,100715.00
2018-11-26T11:26:28.701Z,100714.00
2018-11-26T11:28:58.022Z,100715.00
2018-11-26T11:31:28.068Z,100709.00
2018-11-26T11:33:59.323Z,100709.00
2018-11-26T11:36:28.530Z,100716.00
2018-11-26T11:38:58.077Z,100709.00
2018-11-26T11:41:27.404Z,100710.00
2018-11-26T11:43:56.482Z,100708.00
2018-11-26T11:46:25.596Z,100700.00
2018-11-26T11:48:54.670Z,100707.00
2018-11-26T11:51:23.951Z,100706.00
2018-11-26T11:53:53.125Z,100703.00
2018-11-26T11:56:22.200Z,100709.00
2018-11-26T11:58:51.370Z,100702.00
2018-11-26T12:01:20.417Z,100704.00
2018-11-26T12:03:49.568Z,100710.00
2018-11-26T12:06:38.773Z,100708.00
2018-11-26T12:09:10.234Z,100693.00
2018-11-26T12:11:39.617Z,100702.00
2018-11-26T12:14:09.315Z,100700.00
2018-11-26T12:16:39.641Z,100705.00
2018-11-26T12:19:09.185Z,100705.00
2018-11-26T12:21:44.969Z,100704.00
2018-11-26T12:24:15.319Z,100700.00
2018-11-26T12:26:44.689Z,100705.00
2018-11-26T12:29:41.986Z,100695.00
2018-11-26T12:32:11.577Z,100699.00
2018-11-26T12:34:43.079Z,100699.00
2018-11-26T12:37:13.003Z,100702.00
2018-11-26T12:39:42.499Z,100699.00
2018-11-26T12:42:20.152Z,100695.00
2018-11-26T12:44:59.345Z,100703.00
2018-11-26T12:47:36.023Z,100695.00
2018-11-26T12:50:07.114Z,100703.00
2018-11-26T12:52:52.066Z,100708.00
2018-11-26T12:55:31.646Z,100708.00
2018-11-26T12:58:01.198Z,100709.00
2018-11-26T13:00:30.969Z,100708.00
2018-11-26T13:03:09.734Z,100705.00
2018-11-26T13:05:47.365Z,100711.00
2018-11-26T13:11:47.423Z,100708.00
2018-11-26T13:17:04.832Z,100717.00
2018-11-26T13:19:51.206Z,100714.00
2018-11-26T13:22:30.326Z,100712.00
2018-11-26T13:25:02.573Z,100714.00
2018-11-26T13:27:32.221Z,100716.00
2018-11-26T13:30:09.473Z,100708.00
2018-11-26T13:32:39.553Z,100714.00
2018-11-26T13:35:11.398Z,100711.00
2018-11-26T13:37:40.526Z,100722.00
2018-11-26T13:40:13.053Z,100710.00
2018-11-26T13:42:42.461Z,100716.00
2018-11-26T13:45:21.860Z,100718.00
2018-11-26T13:47:51.419Z,100725.00
2018-11-26T13:50:24.371Z,100721.00
2018-11-26T13:55:42.587Z,100719.00
2018-11-26T13:58:28.197Z,100721.00
2018-11-26T14:01:05.511Z,100733.00
2018-11-26T14:06:56.864Z,100723.00
2018-11-26T14:09:27.093Z,100723.00
2018-11-26T14:11:59.639Z,100717.00
2018-11-26T14:14:29.350Z,100722.00
2018-11-26T14:16:58.453Z,100728.00
2018-11-26T14:19:30.183Z,100725.00
2018-11-26T14:22:00.426Z,100731.00
2018-11-26T14:24:30.866Z,100735.00
2018-11-26T14:27:02.660Z,100726.00
2018-11-26T14:29:32.232Z,100733.00
2018-11-26T14:32:01.755Z,100738.00
2018-11-26T14:46:49.445Z,100745.00
2018-11-26T14:49:28.588Z,100746.00
2018-11-26T14:52:06.912Z,100750.00
2018-11-26T14:54:36.289Z,100755.00
2018-11-26T14:57:05.544Z,100753.00
2018-11-26T14:59:35.130Z,100744.00
2018-11-26T15:02:05.386Z,100752.00
2018-11-26T15:04:34.581Z,100756.00
2018-11-26T15:07:09.880Z,100755.00
2018-11-26T15:09:40.490Z,100753.00
2018-11-26T15:12:12.395Z,100755.00
2018-11-26T15:14:43.541Z,100754.00
2018-11-26T15:17:12.850Z,100759.00
2018-11-26T15:19:42.102Z,100767.00
2018-11-26T15:22:11.262Z,100763.00
2018-11-26T15:24:40.324Z,100769.00
2018-11-26T15:27:09.500Z,100768.00
2018-11-26T15:29:38.652Z,100769.00
2018-11-26T15:32:08.374Z,100770.00
2018-11-26T15:34:38.874Z,100771.00
2018-11-26T15:37:09.224Z,100769.00
2018-11-26T15:39:40.706Z,100776.00
2018-11-26T15:45:19.694Z,100777.00
2018-11-26T15:57:24.890Z,100792.00
2018-11-26T16:06:23.738Z,100789.00
2018-11-26T16:08:55.574Z,100787.00
2018-11-26T16:14:56.296Z,100794.00
2018-11-26T16:19:06.594Z,100783.00
2018-11-26T16:21:36.000Z,100789.00
2018-11-26T16:24:05.578Z,100786.00
2018-11-26T16:26:36.163Z,100791.00
2018-11-26T16:29:06.259Z,100791.00
2018-11-26T16:31:35.210Z,100792.00
2018-11-26T16:34:04.480Z,100797.00
2018-11-26T16:36:34.817Z,100794.00
2018-11-26T16:39:06.224Z,100794.00
2018-11-26T16:41:36.468Z,100810.00
2018-11-26T16:44:06.392Z,100812.00
2018-11-26T16:46:35.544Z,100806.00
2018-11-26T16:49:04.710Z,100810.00
2018-11-26T16:51:34.241Z,100812.00
2018-11-26T16:54:03.717Z,100806.00
2018-11-26T16:56:34.084Z,100824.00
2018-11-26T16:59:03.480Z,100826.00
2018-11-26T17:01:32.853Z,100830.00
2018-11-26T17:04:02.028Z,100828.00
2018-11-26T17:06:31.080Z,100837.00
2018-11-26T17:09:00.268Z,100838.00
2018-11-26T17:11:30.195Z,100843.00
2018-11-26T17:13:59.291Z,100833.00
2018-11-26T17:16:28.413Z,100824.00
2018-11-26T17:18:57.558Z,100844.00
2018-11-26T17:21:26.656Z,100833.00
2018-11-26T17:23:55.881Z,100834.00
2018-11-26T17:26:24.989Z,100834.00
2018-11-26T17:28:54.107Z,100846.00
2018-11-26T17:31:23.276Z,100852.00
2018-11-26T17:33:52.565Z,100846.00
2018-11-26T17:36:22.142Z,100853.00
2018-11-26T17:38:51.988Z,100853.00
2018-11-26T17:41:22.976Z,100864.00
2018-11-26T17:43:52.893Z,100853.00
2018-11-26T17:46:22.577Z,100855.00
2018-11-26T17:48:52.307Z,100858.00
2018-11-26T17:51:22.331Z,100859.00
2018-11-26T17:53:52.180Z,100857.00
2018-11-26T17:56:22.110Z,100852.00
2018-11-26T17:58:51.591Z,100863.00
2018-11-26T18:01:28.706Z,100858.00
2018-11-26T18:03:58.770Z,100860.00
2018-11-26T18:06:34.191Z,100864.00
2018-11-26T18:09:03.418Z,100868.00
2018-11-26T18:11:32.909Z,100878.00
2018-11-26T18:14:02.256Z,100880.00
2018-11-26T18:16:31.322Z,100881.00
2018-11-26T18:19:00.439Z,100871.00
2018-11-26T18:21:29.727Z,100874.00
2018-11-26T18:23:58.861Z,100888.00
2018-11-26T18:26:28.051Z,100889.00
2018-11-26T18:28:57.298Z,100882.00
2018-11-26T18:31:26.446Z,100891.00
2018-11-26T18:33:55.511Z,100893.00
2018-11-26T18:36:25.159Z,100892.00
2018-11-26T18:38:54.315Z,100888.00
2018-11-26T18:41:23.621Z,100875.00
2018-11-26T18:43:52.944Z,100892.00
2018-11-26T18:46:22.205Z,100882.00
2018-11-26T18:48:51.470Z,100885.00
2018-11-26T18:51:20.691Z,100894.00
2018-11-26T18:53:49.832Z,100898.00
2018-11-26T18:56:18.907Z,100904.00
2018-11-26T18:58:48.036Z,100897.00
2018-11-26T19:01:17.217Z,100901.00
2018-11-26T19:03:46.260Z,100910.00
2018-11-26T19:06:15.310Z,100903.00
2018-11-26T19:08:44.552Z,100913.00
2018-11-26T19:11:16.328Z,100902.00
2018-11-26T19:13:57.738Z,100913.00
2018-11-26T19:16:33.786Z,100916.00
2018-11-26T19:19:02.914Z,100916.00
2018-11-26T19:21:32.128Z,100923.00
2018-11-26T19:24:01.459Z,100916.00
2018-11-26T19:26:31.856Z,100920.00
2018-11-26T19:29:01.113Z,100922.00
2018-11-26T19:31:31.980Z,100920.00
2018-11-26T19:34:01.743Z,100913.00
2018-11-26T19:36:31.149Z,100913.00
2018-11-26T19:39:00.459Z,100913.00
2018-11-26T19:41:29.628Z,100911.00
2018-11-26T19:43:59.850Z,100917.00
2018-11-26T19:46:30.294Z,100913.00
2018-11-26T19:48:59.548Z,100911.00
2018-11-26T19:51:28.693Z,100912.00
2018-11-26T19:53:58.034Z,100911.00
2018-11-26T19:56:34.374Z,100919.00
2018-11-26T19:59:03.656Z,100917.00
2018-11-26T20:01:33.636Z,100926.00
2018-11-26T20:04:31.690Z,100919.00
2018-11-26T20:07:00.787Z,100924.00
2018-11-26T20:09:29.905Z,100924.00
2018-11-26T20:11:58.977Z,100924.00
2018-11-26T20:14:28.058Z,100925.00
2018-11-26T20:16:57.228Z,100923.00
2018-11-26T20:19:26.364Z,100924.00
2018-11-26T20:21:55.433Z,100936.00
2018-11-26T20:24:26.758Z,100943.00
2018-11-26T20:26:56.178Z,100935.00
2018-11-26T20:29:25.307Z,100944.00
2018-11-26T20:31:54.718Z,100945.00
2018-11-26T20:34:25.580Z,100950.00
2018-11-26T20:36:54.809Z,100950.00
2018-11-26T20:39:23.885Z,100958.00
2018-11-26T20:41:53.004Z,100956.00
2018-11-26T20:44:22.265Z,100950.00
2018-11-26T20:46:51.387Z,100960.00
2018-11-26T20:49:20.758Z,100956.00
2018-11-26T20:51:49.896Z,100958.00
2018-11-26T20:54:19.619Z,100966.00
2018-11-26T20:56:48.741Z,100964.00
2018-11-26T20:59:18.249Z,100963.00
2018-11-26T21:01:47.413Z,100974.00
2018-11-26T21:04:16.627Z,100966.00
2018-11-26T21:06:45.878Z,100972.00
2018-11-26T21:09:15.215Z,100976.00
2018-11-26T21:11:44.647Z,100971.00
2018-11-26T21:14:13.750Z,100979.00
2018-11-26T21:16:43.833Z,100980.00
2018-11-26T21:19:12.904Z,100990.00
2018-11-26T21:21:42.081Z,100989.00
2018-11-26T21:24:11.737Z,100992.00
2018-11-26T21:26:41.036Z,100998.00
2018-11-26T21:29:10.242Z,100997.00
2018-11-26T21:31:39.381Z,100996.00
2018-11-26T21:34:08.481Z,100993.00
2018-11-26T21:36:37.567Z,100998.00
2018-11-26T21:39:10.500Z,101007.00
2018-11-26T21:41:39.588Z,100999.00
2018-11-26T21:44:08.673Z,101001.00
2018-11-26T21:46:39.194Z,101007.00
2018-11-26T21:49:10.584Z,101004.00
2018-11-26T21:51:39.983Z,101001.00
2018-11-26T21:54:09.144Z,101002.00
2018-11-26T21:56:38.306Z,101008.00
2018-11-26T21:59:09.008Z,101011.00
2018-11-26T22:01:38.386Z,101009.00
2018-11-26T22:04:07.457Z,101014.00
2018-11-26T22:06:36.551Z,101011.00
2018-11-26T22:09:09.398Z,101012.00
2018-11-26T22:11:38.624Z,101019.00
2018-11-26T22:14:07.830Z,101023.00
2018-11-26T22:16:36.980Z,101021.00
2018-11-26T22:19:07.523Z,101027.00
2018-11-26T22:21:36.615Z,101020.00
2018-11-26T22:24:05.844Z,101025.00
2018-11-26T22:26:34.928Z,101022.00
2018-11-26T22:29:04.045Z,101030.00
2018-11-26T22:31:33.186Z,101031.00
2018-11-26T22:34:02.292Z,101021.00
2018-11-26T22:36:31.518Z,101025.00
2018-11-26T22:39:00.838Z,101028.00
2018-11-26T22:41:30.118Z,101028.00
2018-11-26T22:44:00.203Z,101032.00
2018-11-26T22:46:29.518Z,101031.00
2018-11-26T22:48:58.640Z,101031.00
2018-11-26T22:51:27.788Z,101036.00
2018-11-26T22:53:56.873Z,101037.00
2018-11-26T22:56:25.968Z,101033.00
2018-11-26T22:58:55.054Z,101035.00
2018-11-26T23:01:24.111Z,101036.00
2018-11-26T23:03:53.215Z,101035.00
2018-11-26T23:06:22.290Z,101034.00
2018-11-26T23:08:51.376Z,101039.00
2018-11-26T23:11:20.596Z,101041.00
2018-11-26T23:13:49.736Z,101048.00
2018-11-26T23:16:18.890Z,101042.00
2018-11-26T23:18:47.928Z,101049.00
2018-11-26T23:21:16.972Z,101049.00
2018-11-26T23:23:46.294Z,101050.00
2018-11-26T23:26:16.142Z,101048.00
2018-11-26T23:28:45.448Z,101052.00
2018-11-26T23:31:14.686Z,101046.00
2018-11-26T23:33:43.910Z,101055.00
2018-11-26T23:36:13.126Z,101057.00
2018-11-26T23:38:42.384Z,101057.00
2018-11-26T23:41:11.789Z,101063.00
2018-11-26T23:43:41.008Z,101060.00
2018-11-26T23:46:10.162Z,101068.00
2018-11-26T23:48:39.331Z,101054.00
2018-11-26T23:51:08.441Z,101056.00
2018-11-26T23:53:37.480Z,101063.00
2018-11-26T23:56:06.944Z,101060.00
2018-11-26T23:58:36.036Z,101059.00
